KALK

Pioneer Airfield

Pioneer Airfield, Arizona, USA
METAR KALK 212156Z AUTO VRB04KT 10SM CLR 37/M05 A3007 RMK AO2 SLP081 T03721050
Observed Flight Rules
Jun-21 @ 21:56 UTC (6 minutes ago) Visual Flight Rules
Wind Visibility Clouds
Variable at 4 knots 10 miles
  • Clear skies
Temperatures Readings
Current 37°C / 99°F
Dewpoint -5°C / 23°F
Humidity 7%
Altimeter 30.07" Hg
Pressure 1008.1 hPa
Elevation 1453
METAR KALK 212156Z AUTO VRB04KT 10SM CLR 37/M05 A3007 RMK AO2 SLP081 T03721050
Observed Flight Rules
Jun-21 @ 21:56 UTC
(6 minutes ago)
VFR
Wind Visibility
Variable at 4 knots 10 miles
Clouds
  • Clear skies
Temperature Dewpoint
37°C / 99°F -5°C / 23°F
Humidity Altimeter Pressure
7% 30.07" Hg 1008.1 hPa